Time;durP1;ratioP1;P1;durP2;ratioP2;P2;SDS_P1;SDS_P2;PMS_P1;PMS_P2;Temp;Humidity;BMP_temperature;BMP_pressure;BME280_temperature;BME280_humidity;BME280_pressure;Samples;Min_cycle;Max_cycle;Signal;HPM_P1;HPM_P2
2023/07/02 00:02:20;;;;;;;4.22;2.40;;;;;;;17.54;81.90;100754.91;4997329;28;20105;-79
2023/07/02 00:04:46;;;;;;;5.47;2.63;;;;;;;17.54;82.13;100750.47;5011160;28;20042;-79
2023/07/02 00:07:11;;;;;;;4.35;2.78;;;;;;;17.52;82.18;100749.72;5016353;28;20046;-79
2023/07/02 00:09:37;;;;;;;3.20;2.35;;;;;;;17.51;82.34;100755.13;5007476;28;20246;-79
2023/07/02 00:12:02;;;;;;;2.05;1.85;;;;;;;17.50;82.60;100750.78;4996390;28;20261;-79
2023/07/02 00:14:28;;;;;;;4.47;2.20;;;;;;;17.49;82.71;100749.09;4997442;28;20332;-79
2023/07/02 00:16:53;;;;;;;2.20;2.00;;;;;;;17.49;82.90;100749.09;4996635;28;20478;-79
2023/07/02 00:19:18;;;;;;;2.85;2.13;;;;;;;17.49;82.97;100755.22;4996066;28;20042;-79
2023/07/02 00:21:44;;;;;;;2.42;2.10;;;;;;;17.45;82.64;100753.75;4997012;28;20046;-79
2023/07/02 00:24:10;;;;;;;2.97;2.17;;;;;;;17.43;82.11;100753.88;4996367;28;20048;-79
2023/07/02 00:26:37;;;;;;;2.47;2.28;;;;;;;17.42;82.33;100754.81;5015761;28;20037;-79
2023/07/02 00:29:04;;;;;;;3.17;2.88;;;;;;;17.41;82.24;100755.78;4994638;28;20037;-79
2023/07/02 00:31:29;;;;;;;4.47;3.03;;;;;;;17.39;82.04;100754.19;4997000;28;20034;-79
2023/07/02 00:33:55;;;;;;;4.38;3.05;;;;;;;17.37;81.52;100756.97;5002797;28;20097;-79
2023/07/02 00:36:20;;;;;;;6.50;3.03;;;;;;;17.37;81.50;100759.59;4996715;28;20042;-79
2023/07/02 00:38:47;;;;;;;4.25;2.88;;;;;;;17.35;81.10;100769.44;4996636;28;20030;-79
2023/07/02 00:41:13;;;;;;;4.10;3.20;;;;;;;17.35;80.58;100760.66;4996180;28;20372;-79
2023/07/02 00:43:43;;;;;;;8.77;4.97;;;;;;;17.31;79.80;100756.53;4978870;28;20375;-79
2023/07/02 00:46:21;;;;;;;7.63;4.70;;;;;;;17.27;78.00;100759.38;4996307;28;20282;-79
2023/07/02 00:48:47;;;;;;;;;;;;;;;17.24;77.45;100767.53;4996736;28;20038;-79
2023/07/02 00:51:15;;;;;;;10.60;5.13;;;;;;;17.20;76.03;100770.50;4996252;28;20008;-79
2023/07/02 00:53:41;;;;;;;11.73;5.77;;;;;;;17.17;74.74;100768.06;4996629;28;20042;-79
2023/07/02 00:56:07;;;;;;;14.57;6.00;;;;;;;17.13;74.45;100764.78;4995666;28;20359;-79
2023/07/02 00:58:37;;;;;;;8.38;5.10;;;;;;;17.10;74.44;100777.38;4996369;28;20061;-79
2023/07/02 01:04:27;;;;;;;8.27;5.28;;;;;;;17.07;74.85;100775.81;4844418;28;20355;-79
2023/07/02 01:06:57;;;;;;;;;;;;;;;17.05;74.91;100778.56;5012587;28;20046;-79
2023/07/02 01:09:23;;;;;;;10.40;5.38;;;;;;;17.06;75.44;100779.41;4991347;28;19918;-79
2023/07/02 01:11:54;;;;;;;6.82;4.60;;;;;;;17.02;74.36;100781.41;4998768;28;20050;-79
2023/07/02 01:14:22;;;;;;;9.80;5.68;;;;;;;16.99;73.19;100778.13;4999953;28;20063;-79
2023/07/02 01:16:49;;;;;;;12.52;6.15;;;;;;;16.96;72.55;100781.84;4994779;28;20249;-79
2023/07/02 01:19:43;;;;;;;8.73;5.10;;;;;;;16.93;71.81;100786.50;4996210;28;20234;-79
2023/07/02 01:22:09;;;;;;;9.02;5.35;;;;;;;16.91;72.94;100783.94;4994611;28;20066;-79
2023/07/02 01:24:41;;;;;;;9.43;5.45;;;;;;;16.89;72.43;100783.22;4995116;28;20038;-79
2023/07/02 01:27:07;;;;;;;14.15;5.88;;;;;;;16.86;71.55;100780.75;4995675;28;20038;-79
2023/07/02 01:29:36;;;;;;;9.50;4.95;;;;;;;16.84;72.58;100782.66;4995922;28;20089;-79
2023/07/02 01:32:02;;;;;;;9.63;5.50;;;;;;;16.82;73.07;100788.03;4993017;28;20034;-79
2023/07/02 01:34:27;;;;;;;7.82;4.68;;;;;;;16.81;73.16;100782.88;5007178;28;20061;-79
2023/07/02 01:36:52;;;;;;;10.20;5.05;;;;;;;16.80;73.72;100786.44;5014808;28;20110;-79
2023/07/02 01:39:18;;;;;;;8.15;4.95;;;;;;;16.79;74.03;100771.50;5008834;28;20043;-79
2023/07/02 01:41:54;;;;;;;6.85;4.93;;;;;;;16.78;74.18;100775.13;4995583;28;20033;-79
2023/07/02 01:44:20;;;;;;;9.25;5.38;;;;;;;16.75;73.36;100788.53;4994264;28;20068;-79
2023/07/02 01:46:48;;;;;;;9.82;4.60;;;;;;;16.74;73.65;100787.72;4995673;28;20331;-79
2023/07/02 01:49:15;;;;;;;7.17;5.20;;;;;;;16.72;73.51;100784.31;4996240;28;20324;-79
2023/07/02 01:51:40;;;;;;;5.97;4.40;;;;;;;16.72;73.48;100792.25;4995594;28;20174;-79
2023/07/02 01:54:05;;;;;;;7.43;4.43;;;;;;;16.70;73.77;100779.13;4995683;28;20055;-79
2023/07/02 01:56:31;;;;;;;9.27;4.68;;;;;;;16.68;73.79;100783.69;4993918;28;20037;-79
2023/07/02 01:58:56;;;;;;;8.02;4.75;;;;;;;16.67;73.08;100779.34;4995611;28;20046;-79
2023/07/02 02:01:22;;;;;;;8.15;5.13;;;;;;;16.66;73.29;100785.59;4995770;28;20045;-79
2023/07/02 02:03:47;;;;;;;8.68;5.00;;;;;;;16.64;72.97;100787.47;5001233;28;20395;-79
2023/07/02 02:06:12;;;;;;;8.90;5.40;;;;;;;16.63;72.81;100791.06;5014989;28;20034;-79
2023/07/02 02:08:38;;;;;;;9.48;5.10;;;;;;;16.60;73.20;100787.78;5013511;28;20097;-79
2023/07/02 02:11:03;;;;;;;6.57;4.60;;;;;;;16.59;73.35;100788.72;4995143;28;20289;-79
2023/07/02 02:13:29;;;;;;;9.10;5.07;;;;;;;16.58;73.48;100790.53;5009004;28;20034;-79
2023/07/02 02:15:54;;;;;;;7.78;4.70;;;;;;;16.57;73.48;100791.50;5014874;28;20033;-79
2023/07/02 02:18:20;;;;;;;6.97;4.93;;;;;;;16.55;73.15;100788.09;5014668;28;20044;-79
2023/07/02 02:20:45;;;;;;;5.72;4.57;;;;;;;16.53;73.31;100797.91;5014801;28;20040;-79
2023/07/02 02:23:11;;;;;;;5.85;4.47;;;;;;;16.51;73.60;100802.47;5014406;28;20072;-79
2023/07/02 02:25:36;;;;;;;10.38;5.20;;;;;;;16.50;73.38;100808.72;5014755;28;20064;-79
2023/07/02 02:28:01;;;;;;;7.00;5.05;;;;;;;16.48;73.46;100810.59;5014132;28;20401;-79
2023/07/02 02:30:27;;;;;;;8.95;4.97;;;;;;;16.45;73.25;100805.50;4997042;28;20034;-79
2023/07/02 02:32:52;;;;;;;8.85;5.22;;;;;;;16.44;73.32;100814.38;4996808;28;20037;-79
2023/07/02 02:35:17;;;;;;;6.70;4.47;;;;;;;16.43;73.43;100818.00;4996642;28;20343;-79
2023/07/02 02:37:43;;;;;;;8.05;5.05;;;;;;;16.43;73.41;100818.00;4994430;28;20065;-81
2023/07/02 02:40:11;;;;;;;8.20;4.70;;;;;;;16.40;73.50;100819.03;4995095;28;20408;-81
2023/07/02 02:42:38;;;;;;;5.43;4.53;;;;;;;16.39;73.28;100821.75;4980510;28;20041;-81
2023/07/02 02:45:04;;;;;;;9.93;5.32;;;;;;;16.37;73.52;100819.25;4998599;28;20249;-81
2023/07/02 02:47:29;;;;;;;10.60;5.53;;;;;;;16.37;73.28;100823.66;4997782;28;20262;-82
2023/07/02 02:49:55;;;;;;;12.00;6.43;;;;;;;16.34;72.47;100826.53;4999084;28;20112;-81
2023/07/02 02:52:20;;;;;;;10.25;5.60;;;;;;;16.30;72.31;100824.06;4999183;28;20034;-81
2023/07/02 02:54:45;;;;;;;10.43;6.18;;;;;;;16.29;72.35;100832.94;4997469;28;20037;-81
2023/07/02 02:57:11;;;;;;;9.55;5.13;;;;;;;16.28;72.29;100825.09;4997026;28;20101;-80
2023/07/02 02:59:36;;;;;;;11.98;5.95;;;;;;;16.26;72.57;100830.50;4999511;28;20109;-81
2023/07/02 03:02:02;;;;;;;7.75;5.40;;;;;;;16.26;72.62;100829.63;4997412;28;20396;-81
2023/07/02 03:04:28;;;;;;;10.93;5.60;;;;;;;16.26;72.81;100827.00;5000388;28;20066;-81
2023/07/02 03:06:53;;;;;;;8.25;5.07;;;;;;;16.25;72.51;100825.31;4998328;28;20121;-81
2023/07/02 03:09:19;;;;;;;8.30;4.95;;;;;;;16.23;72.88;100822.78;4998814;28;20194;-81
2023/07/02 03:11:47;;;;;;;14.23;5.55;;;;;;;16.21;72.97;100822.03;4998138;28;20038;-80
2023/07/02 03:14:12;;;;;;;13.07;5.97;;;;;;;16.20;72.83;100824.75;4997282;28;20053;-81
2023/07/02 03:16:38;;;;;;;12.90;6.03;;;;;;;16.18;73.17;100814.28;4998247;28;20034;-81
2023/07/02 03:19:03;;;;;;;7.85;5.40;;;;;;;16.18;73.33;100824.03;4996761;28;20026;-81
2023/07/02 03:21:29;;;;;;;12.57;5.25;;;;;;;16.17;73.45;100812.63;4998522;28;20046;-81
2023/07/02 03:23:55;;;;;;;7.70;4.60;;;;;;;16.17;73.63;100827.59;5011626;28;20060;-81
2023/07/02 03:26:21;;;;;;;10.80;5.07;;;;;;;16.17;73.62;100840.81;5017576;28;20041;-80
2023/07/02 03:28:47;;;;;;;7.82;4.88;;;;;;;16.15;73.49;100834.78;5016997;28;20041;-80
2023/07/02 03:31:12;;;;;;;7.38;4.68;;;;;;;16.13;73.40;100826.94;5017830;28;20089;-80
2023/07/02 03:33:37;;;;;;;8.52;5.07;;;;;;;16.11;73.79;100837.59;4996796;28;20060;-81
2023/07/02 03:36:03;;;;;;;11.25;4.95;;;;;;;16.11;73.45;100834.13;4997978;28;20030;-80
2023/07/02 03:38:28;;;;;;;10.30;4.80;;;;;;;16.10;73.64;100840.38;4998220;28;20042;-81
2023/07/02 03:40:54;;;;;;;8.85;5.00;;;;;;;16.07;73.55;100838.75;4997441;28;20358;-81
2023/07/02 03:43:19;;;;;;;10.20;4.93;;;;;;;16.08;73.55;100848.38;5005384;28;20333;-80
2023/07/02 03:45:44;;;;;;;10.65;5.43;;;;;;;16.06;73.40;100842.34;5017126;28;20037;-80
2023/07/02 03:48:10;;;;;;;10.25;5.18;;;;;;;16.06;72.81;100838.84;5017256;28;20061;-80
2023/07/02 03:50:35;;;;;;;9.25;4.57;;;;;;;16.06;73.49;100838.84;4999252;28;20033;-80
2023/07/02 03:53:00;;;;;;;6.78;4.65;;;;;;;16.04;73.52;100846.03;5017457;28;20388;-81
2023/07/02 03:55:26;;;;;;;16.88;5.90;;;;;;;16.00;71.17;100847.16;5016086;28;20040;-80
2023/07/02 03:57:51;;;;;;;10.95;5.18;;;;;;;15.98;72.09;100847.25;5016758;28;20140;-81
2023/07/02 04:00:17;;;;;;;8.90;4.95;;;;;;;15.99;72.32;100850.75;5017234;28;20029;-81
2023/07/02 04:02:42;;;;;;;8.13;4.57;;;;;;;15.98;72.35;100849.06;5016939;28;20559;-81
2023/07/02 04:05:07;;;;;;;7.47;4.63;;;;;;;15.98;72.45;100851.72;4999982;28;20042;-81
2023/07/02 04:07:33;;;;;;;8.52;4.60;;;;;;;15.98;72.59;100863.13;4996823;28;20058;-80
2023/07/02 04:09:59;;;;;;;8.82;4.65;;;;;;;15.97;71.97;100858.78;4996766;28;20058;-80
2023/07/02 04:12:24;;;;;;;7.78;4.38;;;;;;;15.95;72.24;100859.81;4997403;28;20034;-80
2023/07/02 04:14:49;;;;;;;11.93;5.05;;;;;;;15.91;70.84;100859.16;4994649;28;20057;-81
2023/07/02 04:17:15;;;;;;;9.93;4.88;;;;;;;15.91;71.75;100862.63;4996632;28;20045;-80
2023/07/02 04:19:40;;;;;;;11.70;5.85;;;;;;;15.89;70.60;100861.88;4996925;28;20219;-81
2023/07/02 04:22:06;;;;;;;11.38;5.00;;;;;;;15.87;71.21;100866.41;4997119;28;20328;-81
2023/07/02 04:24:31;;;;;;;9.65;4.63;;;;;;;15.87;71.95;100865.59;5012666;28;20092;-81
2023/07/02 04:26:56;;;;;;;7.45;4.78;;;;;;;15.86;71.91;100871.78;5016303;28;20406;-81
2023/07/02 04:29:22;;;;;;;8.20;4.75;;;;;;;15.86;72.21;100877.06;5016432;28;20050;-80
2023/07/02 04:31:47;;;;;;;6.63;4.25;;;;;;;15.87;72.41;100873.50;5016294;28;20037;-80
2023/07/02 04:34:13;;;;;;;5.38;4.00;;;;;;;15.86;72.64;100872.66;5014333;28;20057;-81
2023/07/02 04:36:38;;;;;;;11.07;5.00;;;;;;;15.87;72.95;100876.16;5016470;28;20097;-81
2023/07/02 04:39:04;;;;;;;9.82;3.80;;;;;;;15.87;72.67;100882.25;5011382;28;20260;-80
2023/07/02 04:41:29;;;;;;;8.18;3.90;;;;;;;15.87;73.03;100876.97;4996324;28;20042;-80
2023/07/02 04:43:55;;;;;;;7.45;3.83;;;;;;;15.87;72.88;100882.25;4997111;28;20033;-80
2023/07/02 04:46:20;;;;;;;6.70;3.80;;;;;;;15.87;73.23;100887.53;4996704;28;20034;-81
2023/07/02 04:48:46;;;;;;;6.18;3.47;;;;;;;15.87;73.26;100892.84;4996791;28;20046;-80
2023/07/02 04:51:11;;;;;;;6.40;4.68;;;;;;;15.86;72.75;100893.78;4996823;28;20038;-81
2023/07/02 04:53:37;;;;;;;12.65;4.88;;;;;;;15.84;72.97;100898.28;4996775;28;20062;-80
2023/07/02 04:56:03;;;;;;;7.38;4.47;;;;;;;15.83;72.35;100904.53;4995004;28;20303;-80
2023/07/02 04:58:28;;;;;;;11.43;4.70;;;;;;;15.83;72.77;100896.63;4996348;28;20097;-80
2023/07/02 05:00:54;;;;;;;8.25;4.40;;;;;;;15.82;72.80;100889.63;4995126;28;20113;-80
2023/07/02 05:03:19;;;;;;;8.60;4.15;;;;;;;15.83;73.12;100901.91;4999022;28;20034;-80
2023/07/02 05:05:44;;;;;;;4.38;3.35;;;;;;;15.84;73.16;100908.00;5015675;28;20038;-81
2023/07/02 05:08:10;;;;;;;4.43;3.25;;;;;;;15.84;73.36;100898.28;5014008;28;20185;-80
2023/07/02 05:10:35;;;;;;;7.13;4.47;;;;;;;15.84;73.35;100898.28;4977906;28;20023;-81
2023/07/02 05:13:01;;;;;;;8.48;3.88;;;;;;;15.85;73.58;100900.00;4977094;28;20530;-80
2023/07/02 05:15:26;;;;;;;6.75;3.65;;;;;;;15.85;73.45;100901.81;5015719;28;20249;-79
2023/07/02 05:17:52;;;;;;;5.25;3.70;;;;;;;15.84;73.34;100900.09;5010224;28;20060;-80
2023/07/02 05:20:17;;;;;;;8.10;3.75;;;;;;;15.84;73.79;100906.22;4996121;28;20034;-80
2023/07/02 05:22:42;;;;;;;5.78;3.97;;;;;;;15.86;73.86;100908.75;4996574;28;20042;-81
2023/07/02 05:25:08;;;;;;;5.60;3.85;;;;;;;15.86;73.92;100908.75;4996335;28;20034;-81
2023/07/02 05:27:34;;;;;;;6.57;3.60;;;;;;;15.87;73.95;100910.47;4996067;28;20264;-81
2023/07/02 05:29:59;;;;;;;9.68;4.25;;;;;;;15.87;74.01;100921.88;4996036;28;20081;-80
2023/07/02 05:32:25;;;;;;;5.72;3.28;;;;;;;15.88;74.04;100913.03;4996289;28;20244;-80
2023/07/02 05:34:50;;;;;;;6.55;3.65;;;;;;;15.88;73.80;100920.06;5010396;28;20026;-80
2023/07/02 05:37:16;;;;;;;4.95;3.50;;;;;;;15.88;73.88;100926.22;5015615;28;20321;-79
2023/07/02 05:39:41;;;;;;;6.05;3.53;;;;;;;15.89;73.39;100930.56;4988139;28;20325;-80
2023/07/02 05:42:07;;;;;;;8.50;3.50;;;;;;;15.89;73.45;100940.28;4995386;28;20041;-79
2023/07/02 05:44:32;;;;;;;5.45;3.80;;;;;;;15.88;73.18;100930.63;4996075;28;20041;-79
2023/07/02 05:46:57;;;;;;;5.13;3.30;;;;;;;15.88;73.38;100935.94;4995782;28;20034;-80
2023/07/02 05:49:23;;;;;;;6.43;3.90;;;;;;;15.88;73.42;100944.72;5005623;28;20336;-80
2023/07/02 05:51:48;;;;;;;7.80;3.67;;;;;;;15.88;73.20;100946.50;5015551;28;20044;-80
2023/07/02 05:54:14;;;;;;;9.88;4.55;;;;;;;15.86;72.27;100951.03;5015538;28;20034;-79
2023/07/02 05:56:39;;;;;;;12.15;4.88;;;;;;;15.84;72.38;100945.81;5015182;28;20448;-79
2023/07/02 05:59:04;;;;;;;11.07;4.57;;;;;;;15.84;72.42;100959.03;5008842;28;20063;-80
2023/07/02 06:01:30;;;;;;;10.88;4.03;;;;;;;15.85;72.81;100963.38;4996040;28;20150;-80
2023/07/02 06:03:55;;;;;;;8.93;4.43;;;;;;;15.85;72.61;100954.63;5002720;28;20105;-80
2023/07/02 06:06:23;;;;;;;9.77;4.82;;;;;;;15.86;72.55;100958.94;5015686;28;20034;-80
2023/07/02 06:08:48;;;;;;;13.52;4.90;;;;;;;15.86;72.45;100964.22;4994320;28;20042;-81
2023/07/02 06:11:14;;;;;;;9.55;4.15;;;;;;;15.85;72.74;100966.03;4978419;28;20033;-80
2023/07/02 06:13:40;;;;;;;11.07;4.90;;;;;;;15.83;71.74;100957.34;4990398;28;20393;-80
2023/07/02 06:16:05;;;;;;;8.63;4.38;;;;;;;15.83;72.13;100965.28;4997936;28;20041;-80
2023/07/02 06:18:30;;;;;;;8.43;4.07;;;;;;;15.84;72.20;100960.81;4998603;28;20045;-80
2023/07/02 06:20:56;;;;;;;4.43;3.83;;;;;;;15.86;72.52;100974.78;5018938;28;20033;-81
2023/07/02 06:23:21;;;;;;;12.55;4.15;;;;;;;15.86;72.21;100967.72;5007283;28;20038;-80
2023/07/02 06:25:46;;;;;;;7.53;4.00;;;;;;;15.86;72.17;100973.00;5018363;28;20245;-81
2023/07/02 06:28:12;;;;;;;10.05;4.05;;;;;;;15.87;72.07;100977.34;5019155;28;20061;-80
2023/07/02 06:30:37;;;;;;;12.65;4.20;;;;;;;15.85;70.89;100981.03;5002694;28;20018;-80
2023/07/02 06:33:02;;;;;;;8.23;3.70;;;;;;;15.83;70.68;100973.19;4996956;28;20076;-79
2023/07/02 06:35:28;;;;;;;10.68;4.05;;;;;;;15.85;70.97;100975.75;4996153;28;20042;-79
2023/07/02 06:37:53;;;;;;;6.82;3.40;;;;;;;15.86;71.37;100978.28;4999175;28;20030;-79
2023/07/02 06:40:20;;;;;;;11.07;4.15;;;;;;;15.86;70.52;100978.28;4999076;28;20065;-80
2023/07/02 06:42:46;;;;;;;9.55;3.78;;;;;;;15.86;70.96;100978.28;4998753;28;20037;-80
2023/07/02 06:45:11;;;;;;;10.48;4.22;;;;;;;15.86;70.26;100974.78;4999583;28;20065;-79
2023/07/02 06:47:37;;;;;;;8.02;4.45;;;;;;;15.87;69.72;100981.78;4998600;28;20331;-80
2023/07/02 06:50:03;;;;;;;6.53;3.55;;;;;;;15.86;70.35;100983.59;4998623;28;20053;-80
2023/07/02 06:52:28;;;;;;;6.57;3.55;;;;;;;15.90;70.69;100992.16;4998585;28;20363;-80
2023/07/02 06:54:53;;;;;;;4.65;3.50;;;;;;;15.90;70.84;100987.72;4998463;28;20213;-80
2023/07/02 06:57:19;;;;;;;8.32;3.63;;;;;;;15.91;70.74;100991.22;4998811;28;20233;-80
2023/07/02 06:59:45;;;;;;;5.35;3.47;;;;;;;15.90;70.30;100995.66;4998922;28;20218;-81
2023/07/02 07:02:10;;;;;;;10.38;3.70;;;;;;;15.92;70.72;100999.03;4998644;28;20069;-80
2023/07/02 07:04:35;;;;;;;5.78;3.75;;;;;;;15.93;70.83;101003.41;5011471;28;20045;-80
2023/07/02 07:07:02;;;;;;;6.72;3.58;;;;;;;15.95;71.16;101015.63;5018194;28;20076;-80
2023/07/02 07:09:28;;;;;;;9.40;4.05;;;;;;;15.95;70.77;101010.34;4996877;28;20057;-80
2023/07/02 07:11:53;;;;;;;11.70;3.83;;;;;;;15.95;70.32;101010.34;4998612;28;20074;-80
2023/07/02 07:14:19;;;;;;;8.43;3.65;;;;;;;15.96;70.25;101010.28;4998712;28;20357;-80
2023/07/02 07:16:44;;;;;;;7.13;4.20;;;;;;;15.98;70.71;101016.31;4996645;28;20030;-80
2023/07/02 07:19:09;;;;;;;6.75;3.65;;;;;;;15.99;70.69;101018.03;4998119;28;20092;-80
2023/07/02 07:21:35;;;;;;;4.95;3.63;;;;;;;16.00;70.72;101024.16;4996621;28;20034;-80
2023/07/02 07:24:00;;;;;;;4.28;3.30;;;;;;;16.03;70.80;101026.59;4997869;28;20198;-81
2023/07/02 07:26:25;;;;;;;5.28;3.47;;;;;;;16.04;70.57;101033.56;4998089;28;20236;-80
2023/07/02 07:28:51;;;;;;;4.40;3.33;;;;;;;16.03;70.72;101035.38;4997073;28;20034;-80
2023/07/02 07:31:16;;;;;;;5.10;3.47;;;;;;;16.06;70.44;101036.97;5013726;28;20218;-80
2023/07/02 07:33:41;;;;;;;7.57;3.95;;;;;;;16.08;70.50;101041.22;5017244;28;20399;-80
2023/07/02 07:36:07;;;;;;;5.90;3.15;;;;;;;16.08;70.27;101041.22;4996788;28;20033;-80
2023/07/02 07:38:32;;;;;;;8.88;3.22;;;;;;;16.09;70.04;101035.00;4997758;28;20276;-80
2023/07/02 07:40:58;;;;;;;4.68;3.55;;;;;;;16.10;69.87;101042.00;4997634;28;20060;-80
2023/07/02 07:43:24;;;;;;;6.15;3.10;;;;;;;16.11;69.83;101034.91;4997979;28;20042;-82
2023/07/02 07:45:50;;;;;;;10.27;3.65;;;;;;;16.14;69.63;101037.38;5009681;28;20041;-80
2023/07/02 07:48:15;;;;;;;15.77;3.75;;;;;;;16.15;69.21;101038.22;4992611;28;20101;-80
2023/07/02 07:50:40;;;;;;;9.80;4.25;;;;;;;16.15;68.42;101036.41;4994892;28;20041;-80
2023/07/02 07:53:06;;;;;;;9.75;3.75;;;;;;;16.16;68.74;101043.41;4993091;28;20026;-80
2023/07/02 07:55:31;;;;;;;10.82;3.47;;;;;;;16.18;68.78;101048.59;4994523;28;20423;-80
2023/07/02 07:57:56;;;;;;;13.65;4.30;;;;;;;16.21;68.30;101056.31;4993508;28;20608;-80
2023/07/02 08:00:24;;;;;;;27.08;4.88;;;;;;;16.22;68.05;101050.94;4993206;28;20042;-79
2023/07/02 08:02:50;;;;;;;11.40;4.68;;;;;;;16.25;67.77;101050.75;5002241;28;20332;-80
2023/07/02 08:05:16;;;;;;;6.10;3.25;;;;;;;16.26;68.02;101052.47;5001773;28;20038;-80
2023/07/02 08:07:41;;;;;;;7.93;3.50;;;;;;;16.29;68.44;101049.63;4994958;28;20041;-80
2023/07/02 08:10:09;;;;;;;4.00;3.33;;;;;;;16.30;68.38;101051.34;4994057;28;20105;-79
2023/07/02 08:12:35;;;;;;;4.70;2.95;;;;;;;16.32;68.33;101053.88;4994714;28;20038;-79
2023/07/02 08:15:01;;;;;;;7.80;3.78;;;;;;;16.31;67.33;101057.47;4995387;28;20221;-80
2023/07/02 08:17:26;;;;;;;7.65;3.55;;;;;;;16.33;67.94;101057.38;4995514;28;20081;-79
2023/07/02 08:19:51;;;;;;;5.40;3.45;;;;;;;16.34;67.87;101053.81;4995304;28;20029;-80
2023/07/02 08:22:17;;;;;;;8.95;3.63;;;;;;;16.36;67.39;101058.03;4995365;28;20030;-80
2023/07/02 08:24:42;;;;;;;4.68;3.28;;;;;;;16.38;67.47;101065.88;4994235;28;20588;-80
2023/07/02 08:27:10;;;;;;;6.03;3.00;;;;;;;16.38;67.76;101057.94;4992615;28;20040;-80
2023/07/02 08:29:35;;;;;;;4.93;2.75;;;;;;;16.39;67.60;101063.16;4994637;28;20042;-81
2023/07/02 08:32:00;;;;;;;10.18;3.60;;;;;;;16.41;66.77;101068.31;4993758;28;20030;-80
2023/07/02 08:34:26;;;;;;;6.68;3.03;;;;;;;16.41;65.75;101063.91;5004334;28;20034;-80
2023/07/02 08:36:51;;;;;;;6.10;2.80;;;;;;;16.45;66.44;101069.84;5013272;28;20083;-80
2023/07/02 08:39:17;;;;;;;4.72;2.42;;;;;;;16.45;66.02;101062.75;5007498;28;20038;-80
2023/07/02 08:41:47;;;;;;;2.88;2.35;;;;;;;16.48;66.43;101077.56;4994576;28;20384;-80
2023/07/02 08:44:15;;;;;;;6.63;3.28;;;;;;;16.48;66.17;101077.56;4994953;28;20065;-81
2023/07/02 08:46:42;;;;;;;5.32;2.80;;;;;;;16.50;66.49;101070.41;4994943;28;20444;-80
2023/07/02 08:49:08;;;;;;;8.48;3.30;;;;;;;16.50;66.09;101076.53;4994564;28;20053;-81
2023/07/02 08:51:34;;;;;;;8.57;3.10;;;;;;;16.53;66.42;101077.28;4994672;28;20105;-81
2023/07/02 08:54:01;;;;;;;14.07;3.72;;;;;;;16.55;66.45;101084.16;4994687;28;20149;-80
2023/07/02 08:56:26;;;;;;;6.13;2.72;;;;;;;16.57;66.84;101084.94;4995078;28;20054;-80
2023/07/02 08:58:52;;;;;;;8.30;3.47;;;;;;;16.56;66.10;101083.25;4993992;28;20038;-80
2023/07/02 09:01:17;;;;;;;6.28;3.42;;;;;;;16.58;66.56;101078.72;4993399;28;20034;-80
2023/07/02 09:03:43;;;;;;;3.95;2.70;;;;;;;16.59;65.88;101091.00;4999776;28;20068;-81
2023/07/02 09:06:10;;;;;;;6.13;3.17;;;;;;;16.61;66.15;101083.81;5013968;28;20042;-80
2023/07/02 09:08:36;;;;;;;3.45;2.33;;;;;;;16.63;66.15;101078.44;5012842;28;20395;-80
2023/07/02 09:11:19;;;;;;;3.33;2.50;;;;;;;16.64;65.92;101088.88;4994305;28;20073;-80
2023/07/02 09:14:00;;;;;;;3.97;2.60;;;;;;;16.66;66.13;101094.97;4994562;28;20046;-80
2023/07/02 09:16:28;;;;;;;2.40;2.20;;;;;;;16.68;66.13;101092.19;4995359;28;20245;-81
2023/07/02 09:19:04;;;;;;;3.20;2.22;;;;;;;16.67;66.29;101090.50;4994265;28;20026;-79
2023/07/02 09:21:40;;;;;;;4.28;2.55;;;;;;;16.67;65.09;101104.56;5009109;28;20112;-80
2023/07/02 09:24:34;;;;;;;4.00;2.22;;;;;;;16.70;65.55;101106.19;5014679;28;20217;-80
2023/07/02 09:27:01;;;;;;;2.42;2.13;;;;;;;16.71;65.39;101102.59;5000711;28;20340;-80
2023/07/02 09:29:28;;;;;;;3.08;1.60;;;;;;;16.72;65.54;101095.50;4996200;28;20037;-80
2023/07/02 09:31:55;;;;;;;3.67;2.05;;;;;;;16.73;65.27;101094.56;4996183;28;20107;-79
2023/07/02 09:34:27;;;;;;;2.65;1.90;;;;;;;16.73;65.26;101098.03;5003000;28;20335;-79
2023/07/02 09:36:53;;;;;;;3.08;1.80;;;;;;;16.76;65.25;101091.72;4993909;28;20249;-80
2023/07/02 09:39:28;;;;;;;2.88;1.80;;;;;;;16.76;65.08;101094.38;4994513;28;20044;-79
2023/07/02 09:41:55;;;;;;;2.42;1.77;;;;;;;16.78;64.88;101084.56;4993964;28;20046;-79
2023/07/02 09:44:20;;;;;;;4.68;2.78;;;;;;;16.79;63.82;101088.88;4994730;28;20596;-79
2023/07/02 09:47:11;;;;;;;2.47;2.00;;;;;;;16.82;64.12;101088.69;4993699;28;20096;-79
2023/07/02 09:49:38;;;;;;;5.40;2.35;;;;;;;16.84;63.75;101094.75;4993677;28;20057;-80
2023/07/02 09:52:06;;;;;;;3.90;2.63;;;;;;;16.84;64.09;101095.59;4994029;28;20368;-80
2023/07/02 09:54:32;;;;;;;4.25;2.47;;;;;;;16.86;63.26;101100.81;4998357;28;20204;-80
2023/07/02 09:56:58;;;;;;;4.00;2.00;;;;;;;16.86;63.50;101095.50;4996639;28;20049;-80
2023/07/02 09:59:24;;;;;;;4.05;2.25;;;;;;;16.87;63.71;101097.22;4997955;28;20046;-79
2023/07/02 10:01:50;;;;;;;7.38;2.72;;;;;;;16.90;62.79;101094.41;4996198;28;20065;-80
2023/07/02 10:04:18;;;;;;;5.03;2.97;;;;;;;16.93;63.22;101096.81;5007856;28;20052;-81
2023/07/02 10:06:57;;;;;;;5.63;2.22;;;;;;;16.97;63.09;101102.78;5017076;28;20293;-80
2023/07/02 10:09:35;;;;;;;;;;;;;;;16.97;60.30;101108.06;5010544;28;20109;-80
2023/07/02 10:12:01;;;;;;;4.70;2.47;;;;;;;16.97;60.96;101106.28;4999231;28;19917;-79
2023/07/02 10:14:26;;;;;;;5.80;2.95;;;;;;;17.01;60.70;101107.78;4997847;28;20085;-80
2023/07/02 10:16:53;;;;;;;5.32;2.20;;;;;;;17.03;60.67;101113.81;4997352;28;20105;-80
2023/07/02 10:19:19;;;;;;;3.45;2.42;;;;;;;17.06;61.32;101110.13;4997947;28;20038;-80
2023/07/02 10:21:51;;;;;;;4.05;2.03;;;;;;;17.07;61.44;101103.91;4996158;28;20276;-80
2023/07/02 10:24:17;;;;;;;6.32;2.70;;;;;;;17.10;60.16;101109.00;4997349;28;20038;-79
2023/07/02 10:27:00;;;;;;;3.38;2.58;;;;;;;17.14;60.13;101112.31;4997666;28;20034;-80
2023/07/02 10:29:27;;;;;;;4.93;2.30;;;;;;;17.16;60.63;101113.06;4997343;28;20502;-80
2023/07/02 10:31:57;;;;;;;3.95;2.65;;;;;;;17.15;60.64;101117.47;5005487;28;20329;-79
2023/07/02 10:34:29;;;;;;;3.15;2.00;;;;;;;17.13;60.94;101116.72;4997513;28;20041;-80
2023/07/02 10:36:55;;;;;;;8.25;2.60;;;;;;;17.14;61.21;101113.16;4998905;28;20030;-79
2023/07/02 10:39:20;;;;;;;3.60;2.53;;;;;;;17.13;61.07;101114.06;4992511;28;20352;-80
2023/07/02 10:41:46;;;;;;;6.90;3.22;;;;;;;17.14;61.07;101118.44;4997235;28;20444;-80
2023/07/02 10:44:11;;;;;;;9.43;3.50;;;;;;;17.15;60.09;101120.13;4997257;28;20049;-80
2023/07/02 10:46:47;;;;;;;5.55;3.42;;;;;;;17.18;60.17;101129.69;4996681;28;20053;-79
2023/07/02 10:49:13;;;;;;;4.40;2.65;;;;;;;17.16;59.75;101127.13;4997090;28;20049;-80
2023/07/02 10:51:38;;;;;;;4.15;3.20;;;;;;;17.14;60.58;101128.19;4996255;28;20049;-80
2023/07/02 10:54:05;;;;;;;2.70;2.38;;;;;;;17.14;60.79;101120.25;4996806;28;20042;-80
2023/07/02 10:56:31;;;;;;;4.63;2.67;;;;;;;17.15;61.57;101111.34;4996875;28;20289;-80
2023/07/02 10:58:57;;;;;;;2.95;2.30;;;;;;;17.16;61.72;101108.59;4995929;28;20038;-80
2023/07/02 11:01:27;;;;;;;6.75;2.78;;;;;;;17.19;61.47;101123.41;4995436;28;20081;-80
2023/07/02 11:04:00;;;;;;;6.90;3.22;;;;;;;17.22;60.54;101133.81;4996328;28;20045;-79
2023/07/02 11:06:27;;;;;;;8.48;3.25;;;;;;;17.26;60.85;101143.25;4996650;28;20110;-79
2023/07/02 11:08:54;;;;;;;5.45;2.97;;;;;;;17.28;60.36;101133.41;4996883;28;20214;-80
2023/07/02 11:11:21;;;;;;;5.83;3.00;;;;;;;17.32;60.68;101136.72;4996507;28;20034;-80
2023/07/02 11:13:48;;;;;;;3.28;2.45;;;;;;;17.34;61.10;101143.63;4995948;28;20074;-80
2023/07/02 11:16:29;;;;;;;3.83;2.90;;;;;;;17.36;61.01;101128.50;4986783;28;20033;-79
2023/07/02 11:19:08;;;;;;;5.00;3.08;;;;;;;17.41;60.56;101136.16;4996225;28;20053;-79
2023/07/02 11:21:34;;;;;;;5.03;2.72;;;;;;;17.41;60.91;101139.63;4996796;28;20479;-80
2023/07/02 11:24:06;;;;;;;4.40;3.05;;;;;;;17.41;57.77;101134.34;4995974;28;20034;-79
2023/07/02 11:26:39;;;;;;;5.10;3.50;;;;;;;17.43;58.46;101132.44;4996649;28;20137;-80